Huvudsida
METAR-TAF:

METAR-TAF

Flygplatser :

Rabat, Marocko

Rabat-Salé Airport

latitud: 34-03N, longitud: 006-46W, höjd: 84 m

Aktuellt väderrapport

Denna rapport gjordes för 21 minuter sedan, klockan 04:30 UTC
Vind 2 kt varierande vindriktning
Temperatur 9°C
Fuktighet 93%
Tryck 1005 hPa
Sikt 10 km eller mer
Inga moln under 1 500 m eller inga cumulonimbus

METAR: GMME 230430Z VRB02KT CAVOK 09/08 Q1005 NOSIG

Tid: 04:51 (04:51 UTC)

Väderprognos

Denna rapport gjordes för 5 timmar och 51 minuter sedan, klockan 23:00 UTC
Prognos gäller från 23 kl. 00 UTC till 24 kl. 06 UTC
Vind 13 kt från nordväst
Sikt: 8000 m
Spridda moln på en höjd av 2000 ft
Temporärt
från 23 kl. 00 UTC till 23 kl. 06 UTC
Vind 8 kt från syd
Brutna moln på en höjd av 1300 ft

TAF: GMME 222300Z 2300/2406 32013KT 8000 SCT020 TEMPO 2300/2306 18008KT BKN013

Aktuella väderrapporter och prognoser från 4000 flygplatser (METAR- och TAF-rapporter).

De tillgängliga stationerna syns som gula och röda prickar på kartan.

För musen över prickarna för att se namnen på stationerna.

Klicka sedan för att få väderrapporter och prognoser.

För att ändra kartan: Klicka på de gröna knapparna med ett svart kors på för att zooma in; den gröna knappen med ett streck på för att zooma ut; eller på de gröna pilarna för angränsande kartor.


METAR-TAF: